createdAt,value
2022-08-03T00:01:37.081Z,1.60
2022-08-03T00:04:39.933Z,1.62
2022-08-03T00:07:42.499Z,1.60
2022-08-03T00:10:45.484Z,1.42
2022-08-03T00:13:48.006Z,1.73
2022-08-03T00:16:50.737Z,1.70
2022-08-03T00:19:53.346Z,1.52
2022-08-03T00:22:56.215Z,1.37
2022-08-03T00:25:58.691Z,1.90
2022-08-03T00:29:01.632Z,1.70
2022-08-03T00:32:04.272Z,1.77
2022-08-03T00:35:09.852Z,1.62
2022-08-03T00:38:15.476Z,1.50
2022-08-03T00:41:18.268Z,1.60
2022-08-03T00:44:20.729Z,1.98
2022-08-03T00:47:23.526Z,1.90
2022-08-03T00:50:28.884Z,1.77
2022-08-03T00:53:32.473Z,1.90
2022-08-03T00:56:35.970Z,1.98
2022-08-03T00:59:39.706Z,2.17
2022-08-03T01:02:42.394Z,2.00
2022-08-03T01:06:17.470Z,1.95
2022-08-03T01:09:27.123Z,1.87
2022-08-03T01:12:46.202Z,1.80
2022-08-03T01:15:48.694Z,2.08
2022-08-03T01:19:08.692Z,1.92
2022-08-03T01:22:23.570Z,1.95
2022-08-03T01:25:48.357Z,2.17
2022-08-03T01:29:37.200Z,1.85
2022-08-03T01:33:01.640Z,1.95
2022-08-03T01:36:13.783Z,2.17
2022-08-03T01:39:19.317Z,2.05
2022-08-03T01:42:24.069Z,2.30
2022-08-03T01:45:28.410Z,1.90
2022-08-03T01:48:39.701Z,2.10
2022-08-03T01:51:57.680Z,2.00
2022-08-03T01:55:08.368Z,1.85
2022-08-03T01:58:15.055Z,2.10
2022-08-03T02:01:21.988Z,2.00
2022-08-03T02:04:26.333Z,2.12
2022-08-03T02:07:30.564Z,1.87
2022-08-03T02:10:36.295Z,2.30
2022-08-03T02:13:40.395Z,1.85
2022-08-03T02:16:45.986Z,2.05
2022-08-03T02:19:50.645Z,2.17
2022-08-03T02:22:54.046Z,2.62
2022-08-03T02:26:01.888Z,2.20
2022-08-03T02:29:13.855Z,2.35
2022-08-03T02:32:20.478Z,2.22
2022-08-03T02:35:26.334Z,2.10
2022-08-03T02:38:34.454Z,2.28
2022-08-03T02:41:44.304Z,2.05
2022-08-03T02:44:50.396Z,2.10
2022-08-03T02:47:58.242Z,2.37
2022-08-03T02:51:04.026Z,2.20
2022-08-03T02:54:09.537Z,2.50
2022-08-03T02:57:14.205Z,2.45
2022-08-03T03:00:28.170Z,2.22
2022-08-03T03:03:35.288Z,2.42
2022-08-03T03:06:48.421Z,2.55
2022-08-03T03:09:52.224Z,2.58
2022-08-03T03:12:58.696Z,2.75
2022-08-03T03:16:03.825Z,2.40
2022-08-03T03:19:08.752Z,2.83
2022-08-03T03:22:12.633Z,2.60
2022-08-03T03:25:16.670Z,2.90
2022-08-03T03:28:19.651Z,3.00
2022-08-03T03:31:22.986Z,3.00
2022-08-03T03:34:25.746Z,2.60
2022-08-03T03:37:28.500Z,2.75
2022-08-03T03:40:31.781Z,3.00
2022-08-03T03:43:34.683Z,3.12
2022-08-03T03:46:38.880Z,2.58
2022-08-03T03:49:42.863Z,2.83
2022-08-03T03:52:45.422Z,2.90
2022-08-03T03:55:57.812Z,3.03
2022-08-03T03:59:04.811Z,3.00
2022-08-03T04:02:09.255Z,4.05
2022-08-03T04:05:31.615Z,3.30
2022-08-03T04:08:52.796Z,3.30
2022-08-03T04:12:01.035Z,3.42
2022-08-03T04:15:04.585Z,3.22
2022-08-03T04:18:12.001Z,3.10
2022-08-03T04:21:17.964Z,3.22
2022-08-03T04:24:22.138Z,3.20
2022-08-03T04:27:37.256Z,3.50
2022-08-03T04:30:47.532Z,3.15
2022-08-03T04:33:52.837Z,3.45
2022-08-03T04:36:59.790Z,3.67
2022-08-03T04:40:06.061Z,3.62
2022-08-03T04:43:11.428Z,3.50
2022-08-03T04:46:15.351Z,3.70
2022-08-03T04:49:20.095Z,3.78
2022-08-03T04:52:22.815Z,3.97
2022-08-03T04:55:27.584Z,3.90
2022-08-03T04:58:30.269Z,3.85
2022-08-03T05:01:33.093Z,4.30
2022-08-03T05:04:35.783Z,4.00
2022-08-03T05:07:38.622Z,4.10
2022-08-03T05:10:41.644Z,3.80
2022-08-03T05:13:45.452Z,3.90
2022-08-03T05:16:47.934Z,4.07
2022-08-03T05:19:50.907Z,4.10
2022-08-03T05:22:53.545Z,4.32
2022-08-03T05:25:56.766Z,4.10
2022-08-03T05:28:59.658Z,4.05
2022-08-03T05:32:08.090Z,3.92
2022-08-03T05:35:55.835Z,3.55
2022-08-03T05:38:34.759Z,3.92
2022-08-03T05:41:37.986Z,3.83
2022-08-03T05:44:42.164Z,3.50
2022-08-03T05:47:45.475Z,3.70
2022-08-03T05:50:48.475Z,3.80
2022-08-03T05:53:50.931Z,3.70
2022-08-03T05:56:53.649Z,3.58
2022-08-03T05:59:58.785Z,3.42
2022-08-03T06:03:02.453Z,4.25
2022-08-03T06:06:05.444Z,3.42
2022-08-03T06:09:08.031Z,3.67
2022-08-03T06:12:14.058Z,3.53
2022-08-03T06:15:18.763Z,3.10
2022-08-03T06:18:21.561Z,3.55
2022-08-03T06:21:24.044Z,3.30
2022-08-03T06:24:30.152Z,3.70
2022-08-03T06:27:37.350Z,3.50
2022-08-03T06:30:41.717Z,3.45
2022-08-03T06:34:31.297Z,3.60
2022-08-03T06:37:07.113Z,3.55
2022-08-03T06:40:13.977Z,3.35
2022-08-03T06:43:17.096Z,3.33
2022-08-03T06:46:20.418Z,3.58
2022-08-03T06:49:23.258Z,4.10
2022-08-03T06:52:37.984Z,3.75
2022-08-03T06:55:42.313Z,4.87
2022-08-03T06:58:46.971Z,3.95
2022-08-03T07:01:49.981Z,3.90
2022-08-03T07:04:52.588Z,3.60
2022-08-03T07:07:57.220Z,3.90
2022-08-03T07:10:59.951Z,4.12
2022-08-03T07:14:02.858Z,4.43
2022-08-03T07:17:11.913Z,4.25
2022-08-03T07:20:17.378Z,3.80
2022-08-03T07:23:19.865Z,4.43
2022-08-03T07:26:22.707Z,3.62
2022-08-03T07:29:25.251Z,3.97
2022-08-03T07:32:31.307Z,3.62
2022-08-03T07:35:34.084Z,3.60
2022-08-03T07:38:37.176Z,3.62
2022-08-03T07:41:39.779Z,3.10
2022-08-03T07:44:44.764Z,3.45
2022-08-03T07:47:53.619Z,3.37
2022-08-03T07:50:57.171Z,3.20
2022-08-03T07:54:00.891Z,2.92
2022-08-03T07:57:03.969Z,3.50
2022-08-03T08:00:12.584Z,3.15
2022-08-03T08:03:15.982Z,2.90
2022-08-03T08:06:18.545Z,2.80
2022-08-03T08:09:21.411Z,2.80
2022-08-03T08:12:23.963Z,3.10
2022-08-03T08:15:26.804Z,3.10
2022-08-03T08:18:32.111Z,3.12
2022-08-03T08:21:53.199Z,3.10
2022-08-03T08:25:04.464Z,3.22
2022-08-03T08:28:29.133Z,3.10
2022-08-03T08:31:30.192Z,3.10
2022-08-03T08:34:33.047Z,3.30
2022-08-03T08:37:35.797Z,3.28
2022-08-03T08:40:40.485Z,3.40
2022-08-03T08:43:43.789Z,2.87
2022-08-03T08:46:48.061Z,3.35
2022-08-03T08:50:08.920Z,3.28
2022-08-03T08:53:18.158Z,2.58
2022-08-03T08:56:25.833Z,2.95
2022-08-03T08:59:48.275Z,3.25
2022-08-03T09:02:53.063Z,2.90
2022-08-03T09:05:56.494Z,3.00
2022-08-03T09:08:59.326Z,2.70
2022-08-03T09:12:27.179Z,2.75
2022-08-03T09:15:28.335Z,2.97
2022-08-03T09:18:32.580Z,2.70
2022-08-03T09:21:35.762Z,2.90
2022-08-03T09:25:21.684Z,2.80
2022-08-03T09:29:01.491Z,2.95
2022-08-03T09:31:46.888Z,2.95
2022-08-03T09:34:55.337Z,2.60
2022-08-03T09:38:26.283Z,2.62
2022-08-03T09:41:29.625Z,2.92
2022-08-03T09:44:43.532Z,2.78
2022-08-03T09:47:46.083Z,2.60
2022-08-03T09:50:56.967Z,2.95
2022-08-03T09:54:04.964Z,2.87
2022-08-03T09:57:21.229Z,2.97
2022-08-03T10:00:24.839Z,2.10
2022-08-03T10:03:30.339Z,2.70
2022-08-03T10:06:33.453Z,2.22
2022-08-03T10:09:37.939Z,2.30
2022-08-03T10:12:41.878Z,2.40
2022-08-03T10:16:22.022Z,2.47
2022-08-03T10:19:09.792Z,2.22
2022-08-03T10:22:27.516Z,2.35
2022-08-03T10:25:32.918Z,2.33
2022-08-03T10:28:45.066Z,2.67
2022-08-03T10:31:54.522Z,2.20
2022-08-03T10:35:18.942Z,1.98
2022-08-03T10:38:32.947Z,2.00
2022-08-03T10:41:42.633Z,2.03
2022-08-03T10:44:45.344Z,2.20
2022-08-03T10:47:49.843Z,2.10
2022-08-03T10:50:53.212Z,2.08
2022-08-03T10:53:55.972Z,1.80
2022-08-03T10:57:19.181Z,2.00
2022-08-03T11:00:49.859Z,2.20
2022-08-03T11:03:52.437Z,2.00
2022-08-03T11:07:18.355Z,2.08
2022-08-03T11:10:31.850Z,2.08
2022-08-03T11:13:34.804Z,2.10
2022-08-03T11:16:41.605Z,2.10
2022-08-03T11:19:57.023Z,1.92
2022-08-03T11:23:01.764Z,1.70
2022-08-03T11:26:19.162Z,1.80
2022-08-03T11:29:30.242Z,1.95
2022-08-03T11:32:48.486Z,1.45
2022-08-03T11:36:02.054Z,1.40
2022-08-03T11:39:16.852Z,1.52
2022-08-03T11:42:23.097Z,1.70
2022-08-03T11:45:26.061Z,1.40
2022-08-03T11:48:34.932Z,1.50
2022-08-03T11:51:39.878Z,1.42
2022-08-03T11:54:43.350Z,1.30
2022-08-03T11:59:18.813Z,1.50
2022-08-03T12:01:11.481Z,1.37
2022-08-03T12:04:16.258Z,1.40
2022-08-03T12:07:25.067Z,1.37
2022-08-03T12:10:48.761Z,1.40
2022-08-03T12:14:44.309Z,1.35
2022-08-03T12:17:14.257Z,1.40
2022-08-03T12:20:34.793Z,1.50
2022-08-03T12:23:38.782Z,1.70
2022-08-03T12:26:58.474Z,1.50
2022-08-03T12:30:04.680Z,1.55
2022-08-03T12:33:17.556Z,1.50
2022-08-03T12:36:22.013Z,1.50
2022-08-03T12:39:27.550Z,1.60
2022-08-03T12:42:35.927Z,1.65
2022-08-03T12:45:38.783Z,1.37
2022-08-03T12:49:11.406Z,1.92
2022-08-03T12:52:14.017Z,1.90
2022-08-03T12:55:20.727Z,1.65
2022-08-03T12:58:36.445Z,1.80
2022-08-03T13:01:55.313Z,1.80
2022-08-03T13:05:00.176Z,1.60
2022-08-03T13:08:03.224Z,1.60
2022-08-03T13:11:19.125Z,1.60
2022-08-03T13:14:23.676Z,2.33
2022-08-03T13:17:27.490Z,1.98
2022-08-03T13:20:30.674Z,1.80
2022-08-03T13:23:33.933Z,1.58
2022-08-03T13:26:36.728Z,1.60
2022-08-03T13:29:39.404Z,1.42
2022-08-03T13:32:42.704Z,1.80
2022-08-03T13:35:45.217Z,1.60
2022-08-03T13:38:48.122Z,2.00
2022-08-03T13:41:50.774Z,1.80
2022-08-03T13:44:53.656Z,1.50
2022-08-03T13:47:56.268Z,1.80
2022-08-03T13:51:02.561Z,1.77
2022-08-03T13:54:08.366Z,2.10
2022-08-03T13:58:04.544Z,1.77
2022-08-03T14:00:34.739Z,1.55
2022-08-03T14:03:37.609Z,1.70
2022-08-03T14:06:40.184Z,1.65
2022-08-03T14:09:48.712Z,1.70
2022-08-03T14:12:51.296Z,1.60
2022-08-03T14:15:55.619Z,1.73
2022-08-03T14:18:59.081Z,1.65
2022-08-03T14:22:06.855Z,1.95
2022-08-03T14:25:09.964Z,1.60
2022-08-03T14:28:13.600Z,1.80
2022-08-03T14:32:10.943Z,1.83
2022-08-03T14:34:38.973Z,1.50
2022-08-03T14:37:41.605Z,1.77
2022-08-03T14:40:50.996Z,1.70
2022-08-03T14:44:01.707Z,2.00
2022-08-03T14:47:05.202Z,1.52
2022-08-03T14:50:38.635Z,1.90
2022-08-03T14:53:31.415Z,1.80
2022-08-03T14:56:33.955Z,1.77
2022-08-03T14:59:55.826Z,2.40
2022-08-03T15:02:59.337Z,1.80
2022-08-03T15:06:02.314Z,1.80
2022-08-03T15:09:21.737Z,1.95
2022-08-03T15:12:26.429Z,1.83
2022-08-03T15:15:29.285Z,2.33
2022-08-03T15:18:32.361Z,2.10
2022-08-03T15:21:47.257Z,1.90
2022-08-03T15:24:50.473Z,1.70
2022-08-03T15:28:03.320Z,2.00
2022-08-03T15:31:07.579Z,1.80
2022-08-03T15:34:11.802Z,1.75
2022-08-03T15:37:23.237Z,2.20
2022-08-03T15:40:25.971Z,1.70
2022-08-03T15:43:28.790Z,2.15
2022-08-03T15:46:31.342Z,1.90
2022-08-03T15:49:35.449Z,1.85
2022-08-03T15:52:38.282Z,1.80
2022-08-03T15:55:41.279Z,1.85
2022-08-03T15:59:09.356Z,2.20
2022-08-03T16:02:06.662Z,1.87
2022-08-03T16:05:27.788Z,2.25
2022-08-03T16:08:48.369Z,2.05
2022-08-03T16:11:51.165Z,1.80
2022-08-03T16:14:54.000Z,2.00
2022-08-03T16:17:57.327Z,2.30
2022-08-03T16:21:00.658Z,1.80
2022-08-03T16:24:03.790Z,1.77
2022-08-03T16:27:37.420Z,2.05
2022-08-03T16:30:33.831Z,1.70
2022-08-03T16:33:36.551Z,1.80
2022-08-03T16:36:39.349Z,1.70
2022-08-03T16:39:42.076Z,1.65
2022-08-03T16:42:53.817Z,1.60
2022-08-03T16:45:56.878Z,1.55
2022-08-03T16:48:59.980Z,1.60
2022-08-03T16:52:02.588Z,1.90
2022-08-03T16:55:06.709Z,1.95
2022-08-03T16:58:12.574Z,1.60
2022-08-03T17:01:21.931Z,1.90
2022-08-03T17:04:28.229Z,2.00
2022-08-03T17:07:32.177Z,2.00
2022-08-03T17:10:38.106Z,2.17
2022-08-03T17:13:41.749Z,2.15
2022-08-03T17:16:52.571Z,2.25
2022-08-03T17:19:58.459Z,1.98
2022-08-03T17:23:34.973Z,2.17
2022-08-03T17:26:44.800Z,2.40
2022-08-03T17:29:50.229Z,2.20
2022-08-03T17:32:57.464Z,2.10
2022-08-03T17:36:00.867Z,2.42
2022-08-03T17:39:06.539Z,1.98
2022-08-03T17:42:30.422Z,2.28
2022-08-03T17:45:52.077Z,2.55
2022-08-03T17:48:55.493Z,2.03
2022-08-03T17:52:17.559Z,2.30
2022-08-03T17:55:56.382Z,2.45
2022-08-03T17:58:57.978Z,2.30
2022-08-03T18:02:47.740Z,2.55
2022-08-03T18:06:12.869Z,2.40
2022-08-03T18:10:04.239Z,2.20
2022-08-03T18:12:47.403Z,2.42
2022-08-03T18:16:01.777Z,2.53
2022-08-03T18:19:09.231Z,2.10
2022-08-03T18:22:13.536Z,2.60
2022-08-03T18:25:20.952Z,2.45
2022-08-03T18:28:43.273Z,2.80
2022-08-03T18:32:03.607Z,2.35
2022-08-03T18:35:07.775Z,2.65
2022-08-03T18:38:32.352Z,2.75
2022-08-03T18:41:36.535Z,2.65
2022-08-03T18:44:53.238Z,2.50
2022-08-03T18:48:27.124Z,2.97
2022-08-03T18:51:43.319Z,2.85
2022-08-03T18:55:21.438Z,3.10
2022-08-03T18:58:52.266Z,2.83
2022-08-03T19:05:24.776Z,2.37
2022-08-03T19:08:57.712Z,2.50
2022-08-03T19:12:30.840Z,2.83
2022-08-03T19:15:51.046Z,3.28
2022-08-03T19:18:56.936Z,3.00
2022-08-03T19:22:00.706Z,2.90
2022-08-03T19:25:05.061Z,3.30
2022-08-03T19:28:08.789Z,2.80
2022-08-03T19:31:13.770Z,2.67
2022-08-03T19:34:18.413Z,2.50
2022-08-03T19:37:22.182Z,2.50
2022-08-03T19:40:27.321Z,3.00
2022-08-03T19:43:53.210Z,2.97
2022-08-03T19:47:10.064Z,3.35
2022-08-03T19:50:14.099Z,2.60
2022-08-03T19:53:17.938Z,2.90
2022-08-03T19:56:25.049Z,2.90
2022-08-03T19:59:28.803Z,2.85
2022-08-03T20:02:33.688Z,2.70
2022-08-03T20:05:45.003Z,2.95
2022-08-03T20:08:55.500Z,2.85
2022-08-03T20:12:02.049Z,2.75
2022-08-03T20:15:06.004Z,2.30
2022-08-03T20:18:16.892Z,2.92
2022-08-03T20:21:24.598Z,2.85
2022-08-03T20:24:31.832Z,2.65
2022-08-03T20:31:07.242Z,2.65
2022-08-03T20:34:10.225Z,2.92
2022-08-03T20:37:13.101Z,2.40
2022-08-03T20:40:15.824Z,2.37
2022-08-03T20:43:19.935Z,2.55
2022-08-03T20:46:35.294Z,2.37
2022-08-03T20:49:46.244Z,2.10
2022-08-03T20:52:50.564Z,2.75
2022-08-03T20:56:02.154Z,2.30
2022-08-03T20:59:07.372Z,2.20
2022-08-03T21:02:30.112Z,2.70
2022-08-03T21:05:51.007Z,2.40
2022-08-03T21:09:04.689Z,2.33
2022-08-03T21:12:11.902Z,2.28
2022-08-03T21:13:06.881Z,3.12
2022-08-03T21:18:46.511Z,2.60
2022-08-03T21:21:50.587Z,2.42
2022-08-03T21:24:56.919Z,2.22
2022-08-03T21:28:00.883Z,2.28
2022-08-03T21:31:04.199Z,2.47
2022-08-03T21:34:07.105Z,2.20
2022-08-03T21:37:11.859Z,2.37
2022-08-03T21:40:17.993Z,2.42
2022-08-03T21:43:21.541Z,2.58
2022-08-03T21:46:26.726Z,2.45
2022-08-03T21:49:52.010Z,2.20
2022-08-03T21:52:57.307Z,2.40
2022-08-03T21:56:11.423Z,2.42
2022-08-03T21:59:19.335Z,2.20
2022-08-03T22:02:27.440Z,2.28
2022-08-03T22:05:43.660Z,2.30
2022-08-03T22:08:52.711Z,2.28
2022-08-03T22:11:55.537Z,2.70
2022-08-03T22:15:01.925Z,2.40
2022-08-03T22:18:06.418Z,2.40
2022-08-03T22:21:14.125Z,2.50
2022-08-03T22:24:19.745Z,2.50
2022-08-03T22:27:31.195Z,2.53
2022-08-03T22:30:35.227Z,3.00
2022-08-03T22:33:38.481Z,2.60
2022-08-03T22:36:42.305Z,2.62
2022-08-03T22:39:45.112Z,2.72
2022-08-03T22:42:51.934Z,2.67
2022-08-03T22:46:09.616Z,2.90
2022-08-03T22:49:16.410Z,3.12
2022-08-03T22:52:20.252Z,3.10
2022-08-03T22:55:24.732Z,2.83
2022-08-03T22:58:27.842Z,3.28
2022-08-03T23:01:37.105Z,2.92
2022-08-03T23:04:41.357Z,3.30
2022-08-03T23:07:45.689Z,3.10
2022-08-03T23:10:50.209Z,3.00
2022-08-03T23:13:55.464Z,2.78
2022-08-03T23:17:03.294Z,2.55
2022-08-03T23:20:08.919Z,2.55
2022-08-03T23:23:11.910Z,2.65
2022-08-03T23:26:17.528Z,3.00
2022-08-03T23:29:21.744Z,2.40
2022-08-03T23:32:26.700Z,2.78
2022-08-03T23:36:18.705Z,2.50
2022-08-03T23:39:12.449Z,2.60
2022-08-03T23:42:18.213Z,2.55
2022-08-03T23:45:21.055Z,2.65
2022-08-03T23:48:24.780Z,2.80
2022-08-03T23:52:03.255Z,2.37
2022-08-03T23:55:24.464Z,2.80
2022-08-03T23:58:48.506Z,2.75
